Time;durP1;ratioP1;P1;durP2;ratioP2;P2;SDS_P1;SDS_P2;PMS_P1;PMS_P2;Temp;Humidity;BMP_temperature;BMP_pressure;BME280_temperature;BME280_humidity;BME280_pressure;Samples;Min_cycle;Max_cycle;Signal;HPM_P1;HPM_P2
2022/05/19 00:01:13;;;;;;;6.93;3.50;;;5.20;99.90;;;;;;5014670;28;20229;-82
2022/05/19 00:03:39;;;;;;;7.47;3.80;;;6.70;99.90;;;;;;5014305;28;20261;-82
2022/05/19 00:06:06;;;;;;;14.37;3.97;;;6.70;99.90;;;;;;5014428;28;20177;-82
2022/05/19 00:08:33;;;;;;;8.47;3.50;;;6.60;99.90;;;;;;4996715;28;20244;-82
2022/05/19 00:11:02;;;;;;;7.87;3.60;;;6.60;99.90;;;;;;5014395;28;20178;-82
2022/05/19 00:13:29;;;;;;;6.07;3.37;;;6.50;99.90;;;;;;5014436;28;20180;-82
2022/05/19 00:15:56;;;;;;;11.53;4.07;;;6.50;99.90;;;;;;5014548;28;20609;-82
2022/05/19 00:18:22;;;;;;;6.23;2.93;;;6.50;99.90;;;;;;5014336;28;20174;-82
2022/05/19 00:20:48;;;;;;;8.90;3.63;;;6.40;99.90;;;;;;4996691;28;20192;-82
2022/05/19 00:23:15;;;;;;;10.23;3.30;;;6.40;99.90;;;;;;5014568;28;20185;-82
2022/05/19 00:25:40;;;;;;;3.67;2.73;;;6.40;99.90;;;;;;4996831;28;20235;-82
2022/05/19 00:28:07;;;;;;;9.33;4.17;;;6.40;99.90;;;;;;5013957;28;20605;-82
2022/05/19 00:30:34;;;;;;;4.30;3.00;;;6.30;99.90;;;;;;4996693;28;20612;-82
2022/05/19 00:33:00;;;;;;;7.97;3.10;;;6.30;99.90;;;;;;5013731;28;20630;-82
2022/05/19 00:35:25;;;;;;;5.53;3.33;;;6.20;99.90;;;;;;4996481;28;20193;-82
2022/05/19 00:37:51;;;;;;;13.23;3.87;;;6.20;99.90;;;;;;5013891;28;20181;-82
2022/05/19 00:40:18;;;;;;;3.87;2.97;;;6.30;99.90;;;;;;5013734;28;20559;-82
2022/05/19 00:42:44;;;;;;;4.83;2.70;;;;;;;;;;4996718;28;20177;-82
2022/05/19 00:45:16;;;;;;;5.60;3.40;;;6.10;99.90;;;;;;4996318;28;20648;-82
2022/05/19 00:47:56;;;;;;;4.53;2.83;;;6.10;99.90;;;;;;5013568;28;20209;-82
2022/05/19 00:50:50;;;;;;;4.83;2.70;;;6.00;99.90;;;;;;5014156;28;20161;-82
2022/05/19 00:53:34;;;;;;;7.17;3.30;;;6.00;99.90;;;;;;5013981;28;20170;-82
2022/05/19 00:56:04;;;;;;;6.87;3.07;;;6.00;99.90;;;;;;5013654;28;20173;-82
2022/05/19 00:58:56;;;;;;;4.33;3.10;;;6.00;99.90;;;;;;5013814;28;20260;-82
2022/05/19 01:01:23;;;;;;;9.87;3.73;;;6.00;99.90;;;;;;5013760;28;20229;-82
2022/05/19 01:04:01;;;;;;;6.80;3.43;;;5.90;99.90;;;;;;4996069;28;20181;-83
2022/05/19 01:06:29;;;;;;;4.83;2.97;;;5.90;99.90;;;;;;4995719;28;20183;-81
2022/05/19 01:09:00;;;;;;;5.67;2.63;;;5.80;99.90;;;;;;5013511;28;20209;-82
2022/05/19 01:11:26;;;;;;;7.57;2.13;;;5.80;99.90;;;;;;5013566;28;20497;-82
2022/05/19 01:13:52;;;;;;;7.07;3.10;;;5.80;99.90;;;;;;5013438;28;20188;-82
2022/05/19 01:16:18;;;;;;;4.33;2.63;;;5.70;99.90;;;;;;5013665;28;20177;-82
2022/05/19 01:18:44;;;;;;;6.70;3.53;;;;;;;;;;4996154;28;20235;-81
2022/05/19 01:21:12;;;;;;;5.63;3.27;;;5.80;99.90;;;;;;5013158;28;20570;-82
2022/05/19 01:23:56;;;;;;;5.73;2.87;;;5.60;99.90;;;;;;5013493;28;20232;-81
2022/05/19 01:26:28;;;;;;;8.93;3.07;;;5.80;99.90;;;;;;4996253;28;20188;-81
2022/05/19 01:28:56;;;;;;;4.47;2.57;;;5.70;99.90;;;;;;5013304;28;20205;-81
2022/05/19 01:31:36;;;;;;;5.67;2.67;;;5.80;99.90;;;;;;4995835;28;20539;-82
2022/05/19 01:34:03;;;;;;;5.37;3.17;;;5.70;99.90;;;;;;5013011;28;20228;-82
2022/05/19 01:36:30;;;;;;;10.70;2.73;;;5.70;99.90;;;;;;5013423;28;20177;-81
2022/05/19 01:39:11;;;;;;;3.63;2.43;;;5.80;99.90;;;;;;5012952;28;20259;-81
2022/05/19 01:41:43;;;;;;;10.50;2.83;;;5.60;99.90;;;;;;4995685;28;20268;-81
2022/05/19 01:44:57;;;;;;;3.07;2.77;;;5.60;99.90;;;;;;5013028;28;20549;-81
2022/05/19 01:47:29;;;;;;;5.77;3.33;;;5.50;99.90;;;;;;4914282;29;20235;-81
2022/05/19 01:50:11;;;;;;;8.77;2.83;;;5.50;99.90;;;;;;4914478;29;20651;-82
2022/05/19 01:53:02;;;;;;;6.03;2.67;;;5.50;99.90;;;;;;4971168;28;20189;-82
2022/05/19 01:55:50;;;;;;;4.17;2.90;;;5.40;99.90;;;;;;5013268;28;20257;-82
2022/05/19 01:58:37;;;;;;;7.70;2.87;;;5.40;99.90;;;;;;5013128;28;20165;-82
2022/05/19 02:01:06;;;;;;;6.17;3.23;;;5.40;99.90;;;;;;5012980;28;20303;-82
2022/05/19 02:03:50;;;;;;;5.50;3.27;;;5.40;99.90;;;;;;5013121;28;20188;-81
2022/05/19 02:06:38;;;;;;;2.60;2.30;;;5.30;99.90;;;;;;5013808;28;20173;-83
2022/05/19 02:09:19;;;;;;;4.13;2.63;;;5.30;99.90;;;;;;5015284;28;20209;-82
2022/05/19 02:11:54;;;;;;;5.17;2.73;;;5.30;99.90;;;;;;5013707;28;20158;-82
2022/05/19 02:14:27;;;;;;;5.97;3.10;;;5.20;99.90;;;;;;5013246;28;20192;-83
2022/05/19 02:16:54;;;;;;;4.83;2.50;;;5.20;99.90;;;;;;5014028;28;20200;-83
2022/05/19 02:19:27;;;;;;;4.67;3.07;;;5.20;99.90;;;;;;4998837;28;20173;-84
2022/05/19 02:21:53;;;;;;;7.73;2.67;;;4.90;99.90;;;;;;5016471;28;20169;-83
2022/05/19 02:24:22;;;;;;;3.50;3.00;;;5.10;99.90;;;;;;4998390;28;20209;-82
2022/05/19 02:26:48;;;;;;;3.67;1.63;;;;;;;;;;5016041;28;20208;-83
2022/05/19 02:29:22;;;;;;;6.10;2.17;;;5.10;99.90;;;;;;5015533;28;20244;-83
2022/05/19 02:31:48;;;;;;;5.00;2.47;;;4.90;99.90;;;;;;5016002;28;20169;-83
2022/05/19 02:34:14;;;;;;;7.77;3.13;;;5.10;99.90;;;;;;5015916;28;20562;-82
2022/05/19 02:36:40;;;;;;;5.33;2.50;;;5.10;99.90;;;;;;5015678;28;20180;-83
2022/05/19 02:39:07;;;;;;;5.17;2.93;;;;;;;;;;5015960;28;20247;-82
2022/05/19 02:41:33;;;;;;;6.33;4.00;;;5.00;99.90;;;;;;4982013;28;20276;-82
2022/05/19 02:43:58;;;;;;;15.63;2.87;;;5.00;99.90;;;;;;5015497;28;20709;-83
2022/05/19 02:46:24;;;;;;;4.10;2.57;;;4.90;99.90;;;;;;5016209;28;20231;-82
2022/05/19 02:48:50;;;;;;;4.17;2.10;;;5.00;99.90;;;;;;5015960;28;20243;-82
2022/05/19 02:51:16;;;;;;;3.97;2.33;;;5.00;99.90;;;;;;5015840;28;20213;-82
2022/05/19 02:53:42;;;;;;;3.17;2.13;;;;;;;;;;5015883;28;20268;-83
2022/05/19 02:56:07;;;;;;;4.77;2.37;;;5.00;99.90;;;;;;5015705;28;20174;-83
2022/05/19 02:58:33;;;;;;;2.20;2.00;;;5.00;99.90;;;;;;5015831;28;20631;-83
2022/05/19 03:00:59;;;;;;;6.73;3.00;;;4.90;99.90;;;;;;4997947;28;20702;-86
2022/05/19 03:03:24;;;;;;;3.13;2.30;;;4.90;99.90;;;;;;4982030;28;20189;-82
2022/05/19 03:05:50;;;;;;;3.93;2.70;;;4.90;99.90;;;;;;5015655;28;20181;-81
2022/05/19 03:08:16;;;;;;;3.83;2.03;;;;;;;;;;5015460;28;20212;-81
2022/05/19 03:10:43;;;;;;;3.23;1.87;;;4.90;99.90;;;;;;5015652;28;20177;-81
2022/05/19 03:13:21;;;;;;;3.73;2.37;;;4.90;99.90;;;;;;5015483;28;20177;-81
2022/05/19 03:15:47;;;;;;;4.60;2.47;;;4.90;99.90;;;;;;5015714;28;20165;-81
2022/05/19 03:18:13;;;;;;;3.60;2.83;;;4.80;99.90;;;;;;5015329;28;20184;-80
2022/05/19 03:20:39;;;;;;;5.13;2.57;;;4.60;99.90;;;;;;5015442;28;20656;-80
2022/05/19 03:23:05;;;;;;;2.90;1.90;;;4.90;99.90;;;;;;5015261;28;20185;-81
2022/05/19 03:25:31;;;;;;;4.07;2.40;;;4.80;99.90;;;;;;4981650;28;20280;-81
2022/05/19 03:27:56;;;;;;;4.03;3.50;;;5.00;99.90;;;;;;4997272;28;20209;-80
2022/05/19 03:30:22;;;;;;;6.57;2.80;;;5.50;99.90;;;;;;4981527;28;20535;-80
2022/05/19 03:32:48;;;;;;;11.00;3.27;;;5.20;99.90;;;;;;4981506;28;20276;-80
2022/05/19 03:35:15;;;;;;;4.23;3.07;;;5.20;99.90;;;;;;4997452;28;20188;-81
2022/05/19 03:37:41;;;;;;;7.93;3.67;;;5.40;99.90;;;;;;5015227;28;20212;-81
2022/05/19 03:40:09;;;;;;;4.33;2.37;;;5.50;99.90;;;;;;5014941;28;20212;-82
2022/05/19 03:42:35;;;;;;;4.17;2.63;;;;;;;;;;5015128;28;20173;-82
2022/05/19 03:45:03;;;;;;;5.63;2.87;;;;;;;;;;5014943;28;20178;-81
2022/05/19 03:47:29;;;;;;;7.87;3.50;;;;;;;;;;4997258;28;20213;-81
2022/05/19 03:49:55;;;;;;;5.53;2.47;;;;;;;;;;4997570;28;20539;-81
2022/05/19 03:52:21;;;;;;;6.13;2.67;;;;;;;;;;5014615;28;20208;-81
2022/05/19 03:54:47;;;;;;;5.60;4.03;;;;;;;;;;5014751;28;20279;-81
2022/05/19 03:57:13;;;;;;;7.43;3.13;;;6.30;99.90;;;;;;5014538;28;20676;-81
2022/05/19 03:59:39;;;;;;;4.77;2.53;;;6.30;99.90;;;;;;4996860;28;20189;-80
2022/05/19 04:02:05;;;;;;;4.70;2.80;;;;;;;;;;5014634;28;20213;-86
2022/05/19 04:04:31;;;;;;;6.33;2.67;;;;;;;;;;5014629;28;20288;-81
2022/05/19 04:06:58;;;;;;;11.27;2.87;;;;;;;;;;5014486;28;20185;-81
2022/05/19 04:09:24;;;;;;;1.93;1.60;;;;;;;;;;5014370;28;20272;-81
2022/05/19 04:11:50;;;;;;;9.70;2.33;;;;;;;;;;5014422;28;20641;-81
2022/05/19 04:14:16;;;;;;;2.13;1.93;;;;;;;;;;5014293;28;20181;-81
2022/05/19 04:16:41;;;;;;;3.40;1.90;;;7.40;99.90;;;;;;4996716;28;20603;-81
2022/05/19 04:19:07;;;;;;;3.23;2.40;;;;;;;;;;5014328;28;20185;-85
2022/05/19 04:21:33;;;;;;;1.97;1.47;;;8.10;99.90;;;;;;5014327;28;20181;-81
2022/05/19 04:24:00;;;;;;;3.33;2.10;;;7.90;99.90;;;;;;5014543;28;20185;-81
2022/05/19 04:26:26;;;;;;;2.90;2.00;;;;;;;;;;5013828;28;20211;-81
2022/05/19 04:28:52;;;;;;;2.70;2.20;;;;;;;;;;5014141;28;20212;-81
2022/05/19 04:31:18;;;;;;;3.87;2.27;;;8.50;99.90;;;;;;5014111;28;20204;-82
2022/05/19 04:33:43;;;;;;;4.70;2.03;;;8.40;99.90;;;;;;5014238;28;20511;-82
2022/05/19 04:36:09;;;;;;;3.07;1.73;;;8.50;99.90;;;;;;4996914;28;20181;-87
2022/05/19 04:38:35;;;;;;;3.70;1.83;;;8.40;99.90;;;;;;4980404;28;20280;-82
2022/05/19 04:41:03;;;;;;;1.63;1.23;;;8.50;99.90;;;;;;5013235;28;20185;-82
2022/05/19 04:43:29;;;;;;;3.53;1.60;;;;;;;;;;5013785;28;20178;-82
2022/05/19 04:45:56;;;;;;;5.27;1.83;;;9.10;99.90;;;;;;4996331;28;20300;-83
2022/05/19 04:48:23;;;;;;;4.00;1.53;;;8.80;99.90;;;;;;5013694;28;20267;-82
2022/05/19 04:50:58;;;;;;;5.57;2.33;;;9.10;99.90;;;;;;5013810;28;20181;-82
2022/05/19 04:53:25;;;;;;;2.40;1.67;;;9.50;99.90;;;;;;5013746;28;20552;-82
2022/05/19 04:55:52;;;;;;;3.43;1.70;;;9.50;99.90;;;;;;5013837;28;20645;-82
2022/05/19 04:58:18;;;;;;;2.50;1.57;;;9.70;99.90;;;;;;5013567;28;20178;-82
2022/05/19 05:00:46;;;;;;;5.67;1.70;;;9.60;99.90;;;;;;5013200;28;20240;-84
2022/05/19 05:03:11;;;;;;;2.00;1.50;;;10.00;99.90;;;;;;5013024;28;20181;-82
2022/05/19 05:05:37;;;;;;;3.00;1.87;;;10.20;99.90;;;;;;5011914;28;20177;-83
2022/05/19 05:08:03;;;;;;;1.53;1.10;;;10.40;99.90;;;;;;5012389;28;20215;-82
2022/05/19 05:10:29;;;;;;;3.30;1.30;;;10.20;99.90;;;;;;5012513;28;20188;-83
2022/05/19 05:12:54;;;;;;;2.80;1.50;;;10.60;99.90;;;;;;4994928;28;20571;-83
2022/05/19 05:15:20;;;;;;;4.87;2.07;;;10.50;99.90;;;;;;4995150;28;20187;-83
2022/05/19 05:17:46;;;;;;;1.83;1.53;;;10.50;99.90;;;;;;4994852;28;20185;-86
2022/05/19 05:20:12;;;;;;;1.60;1.50;;;10.80;99.90;;;;;;4995465;28;20231;-83
2022/05/19 05:22:38;;;;;;;5.20;1.77;;;11.30;99.90;;;;;;5012639;28;20695;-82
2022/05/19 05:25:08;;;;;;;6.33;1.40;;;11.20;99.90;;;;;;5012449;28;20181;-83
2022/05/19 05:27:34;;;;;;;4.20;1.70;;;;;;;;;;5012641;28;20208;-83
2022/05/19 05:30:00;;;;;;;3.75;1.58;;;;;;;;;;5012982;28;20518;-82
2022/05/19 05:32:26;;;;;;;4.15;2.25;;;11.40;99.90;;;;;;4994892;28;20185;-82
2022/05/19 05:34:52;;;;;;;3.37;1.57;;;;;;;;;;5012108;28;20623;-84
2022/05/19 05:37:18;;;;;;;1.48;1.38;;;11.60;99.90;;;;;;4994588;28;20602;-84
2022/05/19 05:39:44;;;;;;;5.32;1.67;;;;;;;;;;4994709;28;20239;-84
2022/05/19 05:42:10;;;;;;;2.15;1.58;;;12.10;99.90;;;;;;4994687;28;20177;-83
2022/05/19 05:44:35;;;;;;;1.52;1.30;;;12.00;99.90;;;;;;4994790;28;20185;-83
2022/05/19 05:47:01;;;;;;;2.95;1.50;;;11.90;99.40;;;;;;4994797;28;20544;-82
2022/05/19 05:49:27;;;;;;;1.90;1.35;;;12.50;99.90;;;;;;4994931;28;20181;-82
2022/05/19 05:51:53;;;;;;;8.70;1.65;;;;;;;;;;5013249;28;20264;-83
2022/05/19 05:54:19;;;;;;;5.93;1.70;;;;;;;;;;4998441;28;20185;-88
2022/05/19 05:56:45;;;;;;;3.55;2.35;;;12.90;99.90;;;;;;4982990;28;20537;-82
2022/05/19 05:59:11;;;;;;;2.42;1.85;;;;;;;;;;5016454;28;20205;-84
2022/05/19 06:01:36;;;;;;;3.03;1.50;;;13.40;99.90;;;;;;4998218;28;20240;-83
2022/05/19 06:04:02;;;;;;;3.22;1.52;;;13.60;98.30;;;;;;4982471;28;20173;-84
2022/05/19 06:06:28;;;;;;;4.53;2.22;;;;;;;;;;5016403;28;20185;-83
2022/05/19 06:08:54;;;;;;;2.35;1.70;;;13.60;98.20;;;;;;5016087;28;20692;-83
2022/05/19 06:11:21;;;;;;;1.25;1.15;;;;;;;;;;5016391;28;20185;-87
2022/05/19 06:13:49;;;;;;;4.43;1.40;;;14.10;97.20;;;;;;5015879;28;20173;-83
2022/05/19 06:16:14;;;;;;;1.30;1.20;;;14.20;92.40;;;;;;5016093;28;20189;-82
2022/05/19 06:18:40;;;;;;;2.95;1.27;;;14.50;91.60;;;;;;5015898;28;20181;-82
2022/05/19 06:21:06;;;;;;;4.25;1.50;;;;;;;;;;4981424;28;20195;-83
2022/05/19 06:23:33;;;;;;;1.10;1.00;;;14.50;77.60;;;;;;4997413;28;20182;-84
2022/05/19 06:25:59;;;;;;;1.10;1.00;;;14.40;87.50;;;;;;4997605;28;20192;-83
2022/05/19 06:28:25;;;;;;;3.08;1.40;;;14.60;85.10;;;;;;4981224;28;20209;-85
2022/05/19 06:30:50;;;;;;;0.93;0.80;;;14.60;75.00;;;;;;4997656;28;20277;-85
2022/05/19 06:33:18;;;;;;;4.00;1.65;;;14.50;82.70;;;;;;5014988;28;20550;-85
2022/05/19 06:35:44;;;;;;;1.52;1.00;;;14.80;79.70;;;;;;5016779;28;20177;-82
2022/05/19 06:38:10;;;;;;;1.42;1.02;;;;;;;;;;4998245;28;20216;-85
2022/05/19 06:40:36;;;;;;;1.75;1.27;;;;;;;;;;5015128;28;20181;-86
2022/05/19 06:43:11;;;;;;;1.63;1.08;;;15.60;72.20;;;;;;4997580;28;20239;-84
2022/05/19 06:45:37;;;;;;;2.75;1.20;;;15.90;77.30;;;;;;4997795;28;20645;-82
2022/05/19 06:48:03;;;;;;;2.63;1.13;;;15.70;66.10;;;;;;4997645;28;20213;-84
2022/05/19 06:50:30;;;;;;;1.45;0.75;;;;;;;;;;5014876;28;20655;-85
2022/05/19 06:53:02;;;;;;;1.40;0.63;;;15.70;87.40;;;;;;4997621;28;20196;-84
2022/05/19 06:55:34;;;;;;;1.48;0.90;;;16.00;65.40;;;;;;5014882;28;20164;-86
2022/05/19 06:58:00;;;;;;;3.35;0.60;;;15.90;71.10;;;;;;4996990;28;20204;-84
2022/05/19 07:00:27;;;;;;;1.60;0.75;;;16.30;67.20;;;;;;5014225;28;20570;-84
2022/05/19 07:02:56;;;;;;;1.45;0.80;;;16.10;67.00;;;;;;4996015;28;20208;-86
2022/05/19 07:05:25;;;;;;;0.85;0.70;;;15.80;68.00;;;;;;4996665;28;20181;-86
2022/05/19 07:07:51;;;;;;;1.35;0.70;;;16.30;65.80;;;;;;4996558;28;20212;-86
2022/05/19 07:10:21;;;;;;;0.85;0.85;;;16.50;66.40;;;;;;4980597;28;20561;-86
2022/05/19 07:12:48;;;;;;;0.98;0.77;;;16.50;63.80;;;;;;5014149;28;20180;-83
2022/05/19 07:15:16;;;;;;;0.60;0.60;;;16.70;65.90;;;;;;4964806;28;20519;-86
2022/05/19 07:17:42;;;;;;;2.17;0.68;;;16.70;62.90;;;;;;5014517;28;20180;-85
2022/05/19 07:22:53;;;;;;;1.23;0.88;;;16.70;55.10;;;;;;4999563;28;20216;-86
2022/05/19 07:25:19;;;;;;;0.70;0.70;;;16.80;63.50;;;;;;4996302;28;20629;-86
2022/05/19 07:27:44;;;;;;;1.75;0.85;;;16.80;62.40;;;;;;4996231;28;20582;-87
2022/05/19 07:30:11;;;;;;;0.60;0.60;;;16.90;64.20;;;;;;4980289;28;20193;-88
2022/05/19 07:32:39;;;;;;;4.07;0.95;;;17.10;55.60;;;;;;4996843;28;20268;-85
2022/05/19 07:35:06;;;;;;;1.05;0.80;;;16.80;61.70;;;;;;5013299;28;20174;-86
2022/05/19 07:37:32;;;;;;;1.92;1.00;;;;;;;;;;4995838;28;20189;-87
2022/05/19 07:39:58;;;;;;;1.38;0.60;;;17.30;61.50;;;;;;4996688;28;20187;-86
2022/05/19 07:42:25;;;;;;;0.50;0.50;;;;;;;;;;5014780;28;20201;-86
2022/05/19 07:44:51;;;;;;;0.98;0.70;;;16.50;58.80;;;;;;4981361;28;20240;-85
2022/05/19 07:47:17;;;;;;;2.65;0.65;;;16.50;59.40;;;;;;4998771;28;20539;-86
2022/05/19 07:49:43;;;;;;;0.77;0.50;;;16.90;53.40;;;;;;4980711;28;20247;-85
2022/05/19 07:52:10;;;;;;;0.50;0.50;;;17.10;51.90;;;;;;5012935;28;20592;-86
2022/05/19 07:54:36;;;;;;;0.60;0.60;;;17.20;52.10;;;;;;4979011;28;20185;-85
2022/05/19 07:57:02;;;;;;;0.60;0.60;;;17.20;51.00;;;;;;5013271;28;20173;-85
2022/05/19 07:59:28;;;;;;;0.77;0.50;;;17.40;49.70;;;;;;4996541;28;20184;-87
2022/05/19 08:01:55;;;;;;;1.15;0.63;;;17.50;50.50;;;;;;4996956;28;20237;-86
2022/05/19 08:04:22;;;;;;;0.68;0.68;;;17.50;50.50;;;;;;4997193;28;20185;-86
2022/05/19 08:06:48;;;;;;;1.33;0.82;;;17.50;50.80;;;;;;4981469;28;20700;-86
2022/05/19 08:11:59;;;;;;;0.60;0.55;;;17.60;51.50;;;;;;5015080;28;20171;-86
2022/05/19 08:17:10;;;;;;;0.70;0.70;;;17.70;49.40;;;;;;5014347;28;20653;-86
2022/05/19 08:19:39;;;;;;;2.50;0.60;;;17.70;48.50;;;;;;5013732;28;20185;-87
2022/05/19 08:22:06;;;;;;;0.80;0.80;;;17.70;49.70;;;;;;4996257;28;20181;-86
2022/05/19 08:24:32;;;;;;;0.93;0.80;;;17.80;50.30;;;;;;5013737;28;20200;-86
2022/05/19 08:27:00;;;;;;;0.60;0.60;;;17.80;50.70;;;;;;4995919;28;20521;-86
2022/05/19 08:29:26;;;;;;;0.50;0.50;;;17.90;49.70;;;;;;4995946;28;20559;-87
2022/05/19 08:31:52;;;;;;;1.27;0.85;;;17.80;49.40;;;;;;4996158;28;20192;-86
2022/05/19 08:34:18;;;;;;;2.05;1.75;;;17.90;49.70;;;;;;5014190;28;20199;-85
2022/05/19 08:36:46;;;;;;;1.23;1.02;;;18.20;50.80;;;;;;5014015;28;20177;-86
2022/05/19 08:39:12;;;;;;;0.98;0.68;;;18.40;50.40;;;;;;5015339;28;20188;-87
2022/05/19 08:42:07;;;;;;;0.88;0.88;;;18.30;49.00;;;;;;4996291;28;20204;-88
2022/05/19 08:44:45;;;;;;;0.73;0.65;;;18.30;49.50;;;;;;4993238;28;20201;-86
2022/05/19 08:47:13;;;;;;;1.20;0.60;;;18.40;49.60;;;;;;5013454;28;20598;-87
2022/05/19 08:49:47;;;;;;;1.08;0.77;;;18.40;49.00;;;;;;5013592;28;20178;-88
2022/05/19 08:52:16;;;;;;;0.93;0.70;;;18.40;49.50;;;;;;5013663;28;20161;-86
2022/05/19 08:54:48;;;;;;;1.75;0.70;;;18.40;47.50;;;;;;5014316;28;20177;-86
2022/05/19 08:57:38;;;;;;;0.98;0.82;;;18.40;46.60;;;;;;4996484;28;20181;-86
2022/05/19 09:00:26;;;;;;;1.15;0.80;;;18.40;46.40;;;;;;5013662;28;20229;-87
2022/05/19 09:03:19;;;;;;;0.88;0.70;;;18.60;51.50;;;;;;4996125;28;20208;-87
2022/05/19 09:06:03;;;;;;;1.08;0.65;;;18.70;46.20;;;;;;5013680;28;20165;-88
2022/05/19 09:08:38;;;;;;;0.55;0.55;;;18.90;46.00;;;;;;5013640;28;20200;-87
2022/05/19 09:11:14;;;;;;;0.80;0.80;;;19.00;45.80;;;;;;5013948;28;20700;-87
2022/05/19 09:13:51;;;;;;;0.60;0.60;;;19.40;51.40;;;;;;5013934;28;20173;-87
2022/05/19 09:16:24;;;;;;;0.63;0.52;;;19.30;45.60;;;;;;4996030;28;20195;-87
2022/05/19 09:19:07;;;;;;;0.45;0.45;;;18.90;51.70;;;;;;4995844;28;20294;-88
2022/05/19 09:21:35;;;;;;;2.13;0.68;;;19.80;52.30;;;;;;4996126;28;20181;-87
2022/05/19 09:24:01;;;;;;;0.63;0.55;;;19.30;51.00;;;;;;4996320;28;20184;-88
2022/05/19 09:26:42;;;;;;;1.75;0.75;;;19.50;45.40;;;;;;4997793;28;20186;-87
2022/05/19 09:29:14;;;;;;;0.75;0.75;;;19.50;45.60;;;;;;5017497;28;20201;-87
2022/05/19 09:31:49;;;;;;;0.65;0.43;;;19.70;50.70;;;;;;5000856;28;20217;-87
2022/05/19 09:34:15;;;;;;;0.50;0.50;;;19.40;45.60;;;;;;4999909;28;20164;-86
2022/05/19 09:37:01;;;;;;;0.57;0.50;;;19.60;51.90;;;;;;5017366;28;20280;-87
2022/05/19 09:39:33;;;;;;;0.43;0.43;;;19.80;48.80;;;;;;4999848;28;20630;-87
2022/05/19 09:42:12;;;;;;;1.55;0.57;;;19.90;50.10;;;;;;5017285;28;20166;-87
2022/05/19 09:44:44;;;;;;;0.85;0.70;;;20.00;50.50;;;;;;5017414;28;20161;-87
2022/05/19 09:47:20;;;;;;;1.08;0.70;;;19.70;43.80;;;;;;4999592;28;20174;-86
2022/05/19 09:49:54;;;;;;;0.68;0.68;;;20.00;44.50;;;;;;5017417;28;20169;-89
2022/05/19 09:52:24;;;;;;;1.13;0.65;;;20.20;45.70;;;;;;5017205;28;20172;-86
2022/05/19 09:54:55;;;;;;;1.02;0.63;;;20.40;41.60;;;;;;5017020;28;20661;-87
2022/05/19 09:57:42;;;;;;;3.38;1.45;;;20.40;42.10;;;;;;4999793;28;20322;-87
2022/05/19 10:00:25;;;;;;;2.20;0.60;;;20.20;47.20;;;;;;4999127;28;20243;-87
2022/05/19 10:02:55;;;;;;;1.67;0.65;;;20.70;47.80;;;;;;5017011;28;20157;-88
2022/05/19 10:05:21;;;;;;;0.32;0.32;;;;;;;;;;5017677;28;20200;-87
2022/05/19 10:07:49;;;;;;;2.33;0.73;;;20.90;49.10;;;;;;5016711;28;20201;-87
2022/05/19 10:10:24;;;;;;;1.75;0.60;;;20.60;49.20;;;;;;5016604;28;20268;-87
2022/05/19 10:12:50;;;;;;;1.15;0.55;;;21.50;47.60;;;;;;4999129;28;20180;-88
2022/05/19 10:15:19;;;;;;;1.45;0.65;;;20.90;42.50;;;;;;5016199;28;20757;-86
2022/05/19 10:17:53;;;;;;;1.00;0.70;;;20.90;42.90;;;;;;4998993;28;20181;-86
2022/05/19 10:20:23;;;;;;;1.48;0.63;;;20.90;43.00;;;;;;4999411;28;20300;-86
2022/05/19 10:23:04;;;;;;;0.73;0.73;;;20.70;43.30;;;;;;4999308;28;20177;-87
2022/05/19 10:26:02;;;;;;;0.88;0.57;;;20.70;45.20;;;;;;5017009;28;20172;-88
2022/05/19 10:32:05;;;;;;;0.50;0.50;;;20.70;42.30;;;;;;5016671;28;20200;-86
2022/05/19 10:35:19;;;;;;;1.77;0.68;;;20.60;42.60;;;;;;4999887;28;20253;-86
2022/05/19 10:37:59;;;;;;;0.43;0.43;;;20.80;48.70;;;;;;4977670;28;20197;-86
2022/05/19 10:40:56;;;;;;;0.50;0.50;;;20.90;41.00;;;;;;5017224;28;20158;-86
2022/05/19 10:43:45;;;;;;;6.15;0.90;;;21.10;43.70;;;;;;4999480;28;20223;-87
2022/05/19 10:46:15;;;;;;;1.48;0.63;;;21.40;41.10;;;;;;4999274;28;20208;-86
2022/05/19 10:49:06;;;;;;;1.10;0.85;;;21.40;41.60;;;;;;4998865;28;20209;-85
2022/05/19 10:51:35;;;;;;;1.13;0.77;;;21.00;41.50;;;;;;4999090;28;20197;-85
2022/05/19 10:54:16;;;;;;;0.77;0.52;;;21.00;42.20;;;;;;4998585;28;20177;-86
2022/05/19 10:56:58;;;;;;;0.40;0.40;;;21.10;40.50;;;;;;5016278;28;20165;-86
2022/05/19 10:59:44;;;;;;;0.40;0.40;;;21.10;41.20;;;;;;5016252;28;20176;-86
2022/05/19 11:02:29;;;;;;;1.13;0.80;;;21.20;41.50;;;;;;5015587;28;20212;-86
2022/05/19 11:05:09;;;;;;;1.48;0.60;;;21.20;41.90;;;;;;5015526;28;20618;-88
2022/05/19 11:08:12;;;;;;;0.60;0.60;;;21.60;42.20;;;;;;4997739;28;20288;-85
2022/05/19 11:10:57;;;;;;;0.90;0.73;;;21.90;42.00;;;;;;4997957;28;20184;-86
2022/05/19 11:13:50;;;;;;;1.23;0.70;;;21.80;41.20;;;;;;5015284;28;20161;-85
2022/05/19 11:16:15;;;;;;;1.65;0.80;;;21.70;41.50;;;;;;5015385;28;20232;-84
2022/05/19 11:19:07;;;;;;;1.95;0.80;;;21.60;43.30;;;;;;4998122;28;20193;-87
2022/05/19 11:21:39;;;;;;;0.90;0.70;;;21.80;42.00;;;;;;4998376;28;20596;-85
2022/05/19 11:24:12;;;;;;;1.48;0.68;;;21.70;42.40;;;;;;4997931;28;20544;-84
2022/05/19 11:26:47;;;;;;;0.50;0.50;;;21.70;41.00;;;;;;4998206;28;20656;-85
2022/05/19 11:29:31;;;;;;;1.77;1.45;;;21.70;41.50;;;;;;5015471;28;20193;-86
2022/05/19 11:32:12;;;;;;;2.53;0.70;;;21.70;42.10;;;;;;5015537;28;20638;-85
2022/05/19 11:35:16;;;;;;;0.85;0.50;;;21.90;42.30;;;;;;4997953;28;20545;-85
2022/05/19 11:38:15;;;;;;;0.80;0.70;;;21.90;42.10;;;;;;5015144;28;20180;-87
2022/05/19 11:40:57;;;;;;;0.73;0.73;;;21.80;41.70;;;;;;4997623;28;20532;-86
2022/05/19 11:43:27;;;;;;;1.60;0.93;;;21.90;42.30;;;;;;5015270;28;20177;-85
2022/05/19 11:46:04;;;;;;;0.88;0.77;;;22.10;42.60;;;;;;4997853;28;20177;-85
2022/05/19 11:55:29;;;;;;;1.45;0.75;;;22.00;43.10;;;;;;5015288;28;20185;-86
2022/05/19 11:58:09;;;;;;;1.30;0.80;;;22.00;46.20;;;;;;4900315;29;20286;-85
2022/05/19 12:00:52;;;;;;;0.80;0.80;;;22.20;42.40;;;;;;4986167;28;20259;-86
2022/05/19 12:03:23;;;;;;;1.77;0.70;;;22.30;43.20;;;;;;5015148;28;20238;-86
2022/05/19 12:05:58;;;;;;;0.90;0.60;;;22.40;42.40;;;;;;4997295;28;20208;-85
2022/05/19 12:08:54;;;;;;;0.82;0.65;;;22.50;40.20;;;;;;5014852;28;20193;-86
2022/05/19 12:11:22;;;;;;;1.45;0.77;;;22.30;42.30;;;;;;4998122;28;20189;-86
2022/05/19 12:14:11;;;;;;;1.25;0.90;;;22.40;41.80;;;;;;5014792;28;20173;-85
2022/05/19 12:16:48;;;;;;;1.15;0.47;;;22.30;42.20;;;;;;4998845;28;20185;-86
2022/05/19 12:19:32;;;;;;;0.82;0.70;;;22.30;42.50;;;;;;4997762;28;20633;-85
2022/05/19 12:21:59;;;;;;;0.52;0.47;;;22.40;41.90;;;;;;5014928;28;20181;-86
2022/05/19 12:24:30;;;;;;;0.85;0.45;;;22.60;41.50;;;;;;4996138;28;20211;-86
2022/05/19 12:27:18;;;;;;;0.77;0.50;;;22.70;42.40;;;;;;4996845;28;20180;-86
2022/05/19 12:31:56;;;;;;;0.50;0.50;;;22.90;40.30;;;;;;5014383;28;20169;-86
2022/05/19 12:33:10;;;;;;;0.70;0.70;;;22.90;39.80;;;;;;5014153;28;20218;-86
2022/05/19 12:35:37;;;;;;;4.30;0.98;;;22.90;40.40;;;;;;4997121;28;20187;-86
2022/05/19 12:38:07;;;;;;;2.25;0.55;;;22.70;40.90;;;;;;5014615;28;20192;-85
2022/05/19 12:40:55;;;;;;;0.50;0.50;;;22.80;40.90;;;;;;5017528;28;20634;-86
2022/05/19 12:43:21;;;;;;;1.55;0.73;;;23.00;40.00;;;;;;4996484;28;20184;-86
2022/05/19 12:45:51;;;;;;;0.50;0.50;;;23.00;39.60;;;;;;4996437;28;20181;-86
2022/05/19 12:48:18;;;;;;;0.90;0.60;;;23.00;39.80;;;;;;5013785;28;20641;-86
2022/05/19 12:50:50;;;;;;;1.60;0.73;;;23.20;39.60;;;;;;5014221;28;20227;-85
2022/05/19 12:53:23;;;;;;;0.45;0.45;;;23.30;39.90;;;;;;5014033;28;20256;-85
2022/05/19 12:55:53;;;;;;;5.07;0.50;;;23.10;40.10;;;;;;4996539;28;20192;-86
2022/05/19 12:58:34;;;;;;;0.63;0.57;;;23.10;40.10;;;;;;4996469;28;20280;-85
2022/05/19 13:01:11;;;;;;;0.60;0.55;;;23.20;40.20;;;;;;5013562;28;20225;-86
2022/05/19 13:03:38;;;;;;;1.65;0.85;;;23.00;40.20;;;;;;5013851;28;20629;-86
2022/05/19 13:06:05;;;;;;;0.68;0.47;;;23.00;40.00;;;;;;4980683;28;20193;-85
2022/05/19 13:08:39;;;;;;;0.47;0.47;;;23.20;39.60;;;;;;5013595;28;20472;-85
2022/05/19 13:11:14;;;;;;;1.38;0.45;;;23.30;41.60;;;;;;5013844;28;20180;-86
2022/05/19 13:13:43;;;;;;;0.65;0.50;;;23.30;40.10;;;;;;4995841;28;20692;-86
2022/05/19 13:16:25;;;;;;;0.35;0.30;;;23.00;40.30;;;;;;5013414;28;20204;-91
2022/05/19 13:18:53;;;;;;;0.63;0.50;;;22.90;40.80;;;;;;5013633;28;20177;-86
2022/05/19 13:21:37;;;;;;;0.40;0.40;;;23.10;42.10;;;;;;5013270;28;20173;-86
2022/05/19 13:24:06;;;;;;;0.68;0.50;;;23.40;40.10;;;;;;4996170;28;20607;-85
2022/05/19 13:26:39;;;;;;;1.13;0.75;;;23.50;40.20;;;;;;4996144;28;20184;-85
2022/05/19 13:32:11;;;;;;;0.68;0.50;;;23.30;39.00;;;;;;5013909;28;20638;-85
2022/05/19 13:34:54;;;;;;;0.43;0.40;;;23.00;40.10;;;;;;5013851;28;20166;-86
2022/05/19 13:37:38;;;;;;;0.40;0.40;;;23.10;39.00;;;;;;4996277;28;20267;-86
2022/05/19 13:40:36;;;;;;;0.70;0.70;;;23.10;40.50;;;;;;5013865;28;20653;-86
2022/05/19 13:43:21;;;;;;;0.77;0.40;;;23.30;39.80;;;;;;4996457;28;20187;-86
2022/05/19 13:45:51;;;;;;;0.80;0.80;;;23.40;40.60;;;;;;5014193;28;20174;-85
2022/05/19 13:48:29;;;;;;;0.85;0.60;;;23.50;39.10;;;;;;5013682;28;20201;-86